sensor_id;sensor_type;location;lat;lon;timestamp;P1;durP1;ratioP1;P2;durP2;ratioP2
82125;SDS011;71668;51.400;6.758;2023-12-20T00:01:21;10.23;;;8.17;;
82125;SDS011;71668;51.400;6.758;2023-12-20T00:03:49;13.00;;;7.63;;
82125;SDS011;71668;51.400;6.758;2023-12-20T00:06:15;10.70;;;8.00;;
82125;SDS011;71668;51.400;6.758;2023-12-20T00:08:42;10.87;;;8.37;;
82125;SDS011;71668;51.400;6.758;2023-12-20T00:11:10;10.23;;;8.53;;
82125;SDS011;71668;51.400;6.758;2023-12-20T00:13:38;11.73;;;8.67;;
82125;SDS011;71668;51.400;6.758;2023-12-20T00:16:05;8.97;;;8.07;;
82125;SDS011;71668;51.400;6.758;2023-12-20T00:18:32;13.73;;;9.30;;
82125;SDS011;71668;51.400;6.758;2023-12-20T00:20:59;10.33;;;8.10;;
82125;SDS011;71668;51.400;6.758;2023-12-20T00:23:26;12.30;;;9.20;;
82125;SDS011;71668;51.400;6.758;2023-12-20T00:25:53;11.83;;;8.83;;
82125;SDS011;71668;51.400;6.758;2023-12-20T00:28:20;11.03;;;8.83;;
82125;SDS011;71668;51.400;6.758;2023-12-20T00:30:47;12.23;;;8.83;;
82125;SDS011;71668;51.400;6.758;2023-12-20T00:33:14;11.17;;;9.17;;
82125;SDS011;71668;51.400;6.758;2023-12-20T00:35:41;12.13;;;9.27;;
82125;SDS011;71668;51.400;6.758;2023-12-20T00:38:08;11.70;;;8.60;;
82125;SDS011;71668;51.400;6.758;2023-12-20T00:40:36;11.93;;;8.27;;
82125;SDS011;71668;51.400;6.758;2023-12-20T00:43:03;11.50;;;8.13;;
82125;SDS011;71668;51.400;6.758;2023-12-20T00:45:30;12.97;;;8.63;;
82125;SDS011;71668;51.400;6.758;2023-12-20T00:47:57;12.67;;;8.73;;
82125;SDS011;71668;51.400;6.758;2023-12-20T00:50:25;18.20;;;9.43;;
82125;SDS011;71668;51.400;6.758;2023-12-20T00:52:55;14.03;;;8.80;;
82125;SDS011;71668;51.400;6.758;2023-12-20T00:55:22;14.03;;;9.03;;
82125;SDS011;71668;51.400;6.758;2023-12-20T00:57:49;13.30;;;8.87;;
82125;SDS011;71668;51.400;6.758;2023-12-20T01:00:16;12.63;;;8.93;;
82125;SDS011;71668;51.400;6.758;2023-12-20T01:02:43;13.93;;;8.80;;
82125;SDS011;71668;51.400;6.758;2023-12-20T01:05:12;13.97;;;8.80;;
82125;SDS011;71668;51.400;6.758;2023-12-20T01:07:39;11.97;;;8.23;;
82125;SDS011;71668;51.400;6.758;2023-12-20T01:10:06;12.53;;;9.37;;
82125;SDS011;71668;51.400;6.758;2023-12-20T01:12:33;10.43;;;9.13;;
82125;SDS011;71668;51.400;6.758;2023-12-20T01:15:00;11.07;;;9.17;;
82125;SDS011;71668;51.400;6.758;2023-12-20T01:17:27;12.30;;;8.83;;
82125;SDS011;71668;51.400;6.758;2023-12-20T01:19:54;11.70;;;8.13;;
82125;SDS011;71668;51.400;6.758;2023-12-20T01:22:20;12.47;;;8.77;;
82125;SDS011;71668;51.400;6.758;2023-12-20T01:24:47;11.43;;;7.97;;
82125;SDS011;71668;51.400;6.758;2023-12-20T01:27:14;9.50;;;7.63;;
82125;SDS011;71668;51.400;6.758;2023-12-20T01:29:41;9.57;;;7.83;;
82125;SDS011;71668;51.400;6.758;2023-12-20T01:32:07;12.20;;;7.83;;
82125;SDS011;71668;51.400;6.758;2023-12-20T01:34:34;13.13;;;8.40;;
82125;SDS011;71668;51.400;6.758;2023-12-20T01:37:02;11.50;;;7.10;;
82125;SDS011;71668;51.400;6.758;2023-12-20T01:39:30;10.60;;;7.57;;
82125;SDS011;71668;51.400;6.758;2023-12-20T01:41:57;13.57;;;7.63;;
82125;SDS011;71668;51.400;6.758;2023-12-20T01:44:24;13.03;;;7.80;;
82125;SDS011;71668;51.400;6.758;2023-12-20T01:46:51;14.93;;;8.40;;
82125;SDS011;71668;51.400;6.758;2023-12-20T01:49:19;11.67;;;7.40;;
82125;SDS011;71668;51.400;6.758;2023-12-20T01:51:46;11.83;;;8.00;;
82125;SDS011;71668;51.400;6.758;2023-12-20T01:54:14;13.77;;;7.60;;
82125;SDS011;71668;51.400;6.758;2023-12-20T01:56:41;12.60;;;7.70;;
82125;SDS011;71668;51.400;6.758;2023-12-20T01:59:08;13.20;;;7.20;;
82125;SDS011;71668;51.400;6.758;2023-12-20T02:01:35;12.57;;;7.93;;
82125;SDS011;71668;51.400;6.758;2023-12-20T02:04:03;15.53;;;7.90;;
82125;SDS011;71668;51.400;6.758;2023-12-20T02:06:31;15.43;;;7.50;;
82125;SDS011;71668;51.400;6.758;2023-12-20T02:09:00;14.00;;;7.60;;
82125;SDS011;71668;51.400;6.758;2023-12-20T02:11:27;12.37;;;6.37;;
82125;SDS011;71668;51.400;6.758;2023-12-20T02:13:55;13.07;;;7.03;;
82125;SDS011;71668;51.400;6.758;2023-12-20T02:16:22;12.60;;;6.97;;
82125;SDS011;71668;51.400;6.758;2023-12-20T02:18:49;16.13;;;7.20;;
82125;SDS011;71668;51.400;6.758;2023-12-20T02:21:16;11.53;;;6.57;;
82125;SDS011;71668;51.400;6.758;2023-12-20T02:23:43;9.20;;;6.67;;
82125;SDS011;71668;51.400;6.758;2023-12-20T02:26:10;13.83;;;7.13;;
82125;SDS011;71668;51.400;6.758;2023-12-20T02:28:37;12.63;;;6.70;;
82125;SDS011;71668;51.400;6.758;2023-12-20T02:31:04;12.33;;;6.80;;
82125;SDS011;71668;51.400;6.758;2023-12-20T02:33:31;17.23;;;7.23;;
82125;SDS011;71668;51.400;6.758;2023-12-20T02:35:58;13.47;;;6.87;;
82125;SDS011;71668;51.400;6.758;2023-12-20T02:38:24;14.13;;;6.73;;
82125;SDS011;71668;51.400;6.758;2023-12-20T02:40:51;16.00;;;7.30;;
82125;SDS011;71668;51.400;6.758;2023-12-20T02:43:18;17.03;;;7.30;;
82125;SDS011;71668;51.400;6.758;2023-12-20T02:45:45;16.87;;;6.70;;
82125;SDS011;71668;51.400;6.758;2023-12-20T02:48:12;13.10;;;6.67;;
82125;SDS011;71668;51.400;6.758;2023-12-20T02:50:39;14.00;;;6.00;;
82125;SDS011;71668;51.400;6.758;2023-12-20T02:53:06;15.20;;;5.77;;
82125;SDS011;71668;51.400;6.758;2023-12-20T02:55:33;11.80;;;5.80;;
82125;SDS011;71668;51.400;6.758;2023-12-20T02:58:00;19.27;;;5.83;;
82125;SDS011;71668;51.400;6.758;2023-12-20T03:00:27;11.53;;;5.13;;
82125;SDS011;71668;51.400;6.758;2023-12-20T03:02:55;11.57;;;5.60;;
82125;SDS011;71668;51.400;6.758;2023-12-20T03:05:21;11.67;;;4.93;;
82125;SDS011;71668;51.400;6.758;2023-12-20T03:07:48;12.27;;;5.03;;
82125;SDS011;71668;51.400;6.758;2023-12-20T03:10:18;12.10;;;4.70;;
82125;SDS011;71668;51.400;6.758;2023-12-20T03:12:52;13.17;;;4.90;;
82125;SDS011;71668;51.400;6.758;2023-12-20T03:15:19;14.37;;;4.70;;
82125;SDS011;71668;51.400;6.758;2023-12-20T03:17:46;11.20;;;3.90;;
82125;SDS011;71668;51.400;6.758;2023-12-20T03:20:16;14.77;;;4.80;;
82125;SDS011;71668;51.400;6.758;2023-12-20T03:22:46;8.97;;;3.40;;
82125;SDS011;71668;51.400;6.758;2023-12-20T03:25:13;11.80;;;4.37;;
82125;SDS011;71668;51.400;6.758;2023-12-20T03:27:40;10.30;;;3.80;;
82125;SDS011;71668;51.400;6.758;2023-12-20T03:30:07;12.70;;;4.17;;
82125;SDS011;71668;51.400;6.758;2023-12-20T03:32:34;11.13;;;3.60;;
82125;SDS011;71668;51.400;6.758;2023-12-20T03:35:01;13.77;;;4.47;;
82125;SDS011;71668;51.400;6.758;2023-12-20T03:37:28;12.93;;;3.40;;
82125;SDS011;71668;51.400;6.758;2023-12-20T03:39:55;11.07;;;3.50;;
82125;SDS011;71668;51.400;6.758;2023-12-20T03:42:22;12.20;;;3.53;;
82125;SDS011;71668;51.400;6.758;2023-12-20T03:44:49;12.80;;;3.33;;
82125;SDS011;71668;51.400;6.758;2023-12-20T03:47:16;11.07;;;3.90;;
82125;SDS011;71668;51.400;6.758;2023-12-20T03:49:43;13.13;;;4.30;;
82125;SDS011;71668;51.400;6.758;2023-12-20T03:52:12;11.27;;;3.70;;
82125;SDS011;71668;51.400;6.758;2023-12-20T03:54:39;14.40;;;3.93;;
82125;SDS011;71668;51.400;6.758;2023-12-20T03:57:08;14.03;;;4.40;;
82125;SDS011;71668;51.400;6.758;2023-12-20T03:59:36;12.87;;;4.00;;
82125;SDS011;71668;51.400;6.758;2023-12-20T04:02:03;11.97;;;3.80;;
82125;SDS011;71668;51.400;6.758;2023-12-20T04:04:30;11.07;;;3.53;;
82125;SDS011;71668;51.400;6.758;2023-12-20T04:06:58;18.07;;;4.40;;
82125;SDS011;71668;51.400;6.758;2023-12-20T04:09:25;11.00;;;3.57;;
82125;SDS011;71668;51.400;6.758;2023-12-20T04:11:52;13.23;;;3.87;;
82125;SDS011;71668;51.400;6.758;2023-12-20T04:14:19;14.63;;;3.70;;
82125;SDS011;71668;51.400;6.758;2023-12-20T04:16:46;11.93;;;3.47;;
82125;SDS011;71668;51.400;6.758;2023-12-20T04:19:13;11.50;;;4.00;;
82125;SDS011;71668;51.400;6.758;2023-12-20T04:21:40;16.43;;;4.00;;
82125;SDS011;71668;51.400;6.758;2023-12-20T04:24:07;15.03;;;4.10;;
82125;SDS011;71668;51.400;6.758;2023-12-20T04:26:34;18.60;;;4.83;;
82125;SDS011;71668;51.400;6.758;2023-12-20T04:29:01;12.53;;;4.47;;
82125;SDS011;71668;51.400;6.758;2023-12-20T04:31:28;15.03;;;4.43;;
82125;SDS011;71668;51.400;6.758;2023-12-20T04:33:55;13.13;;;5.07;;
82125;SDS011;71668;51.400;6.758;2023-12-20T04:36:22;13.23;;;4.80;;
82125;SDS011;71668;51.400;6.758;2023-12-20T04:38:49;17.83;;;5.27;;
82125;SDS011;71668;51.400;6.758;2023-12-20T04:41:15;16.97;;;5.00;;
82125;SDS011;71668;51.400;6.758;2023-12-20T04:43:45;8.00;;;5.00;;
82125;SDS011;71668;51.400;6.758;2023-12-20T04:46:11;16.80;;;5.37;;
82125;SDS011;71668;51.400;6.758;2023-12-20T04:48:38;12.83;;;4.53;;
82125;SDS011;71668;51.400;6.758;2023-12-20T04:51:05;15.83;;;5.13;;
82125;SDS011;71668;51.400;6.758;2023-12-20T04:53:32;14.37;;;5.40;;
82125;SDS011;71668;51.400;6.758;2023-12-20T04:55:59;15.40;;;5.90;;
82125;SDS011;71668;51.400;6.758;2023-12-20T04:58:25;14.60;;;5.67;;
82125;SDS011;71668;51.400;6.758;2023-12-20T05:00:52;14.83;;;5.70;;
82125;SDS011;71668;51.400;6.758;2023-12-20T05:03:20;19.37;;;6.47;;
82125;SDS011;71668;51.400;6.758;2023-12-20T05:05:47;15.57;;;6.40;;
82125;SDS011;71668;51.400;6.758;2023-12-20T05:08:14;16.63;;;5.70;;
82125;SDS011;71668;51.400;6.758;2023-12-20T05:10:41;13.53;;;5.30;;
82125;SDS011;71668;51.400;6.758;2023-12-20T05:13:08;13.50;;;6.10;;
82125;SDS011;71668;51.400;6.758;2023-12-20T05:15:35;14.57;;;6.23;;
82125;SDS011;71668;51.400;6.758;2023-12-20T05:18:02;12.70;;;5.73;;
82125;SDS011;71668;51.400;6.758;2023-12-20T05:20:29;15.37;;;6.17;;
82125;SDS011;71668;51.400;6.758;2023-12-20T05:22:56;15.93;;;5.60;;
82125;SDS011;71668;51.400;6.758;2023-12-20T05:25:23;14.13;;;6.20;;
82125;SDS011;71668;51.400;6.758;2023-12-20T05:27:50;20.83;;;6.03;;
82125;SDS011;71668;51.400;6.758;2023-12-20T05:30:17;12.33;;;5.47;;
82125;SDS011;71668;51.400;6.758;2023-12-20T05:32:44;17.07;;;5.30;;
82125;SDS011;71668;51.400;6.758;2023-12-20T05:35:11;12.17;;;6.00;;
82125;SDS011;71668;51.400;6.758;2023-12-20T05:37:38;15.33;;;5.87;;
82125;SDS011;71668;51.400;6.758;2023-12-20T05:40:05;13.00;;;6.00;;
82125;SDS011;71668;51.400;6.758;2023-12-20T05:42:32;16.77;;;5.67;;
82125;SDS011;71668;51.400;6.758;2023-12-20T05:45:00;17.97;;;6.63;;
82125;SDS011;71668;51.400;6.758;2023-12-20T05:47:26;16.67;;;5.97;;
82125;SDS011;71668;51.400;6.758;2023-12-20T05:49:53;16.13;;;6.03;;
82125;SDS011;71668;51.400;6.758;2023-12-20T05:52:20;15.33;;;5.97;;
82125;SDS011;71668;51.400;6.758;2023-12-20T05:54:48;16.17;;;5.63;;
82125;SDS011;71668;51.400;6.758;2023-12-20T05:57:15;13.60;;;5.83;;
82125;SDS011;71668;51.400;6.758;2023-12-20T05:59:41;15.53;;;5.77;;
82125;SDS011;71668;51.400;6.758;2023-12-20T06:02:09;14.10;;;5.33;;
82125;SDS011;71668;51.400;6.758;2023-12-20T06:04:35;15.77;;;6.20;;
82125;SDS011;71668;51.400;6.758;2023-12-20T06:07:02;15.43;;;5.60;;
82125;SDS011;71668;51.400;6.758;2023-12-20T06:09:29;17.83;;;5.93;;
82125;SDS011;71668;51.400;6.758;2023-12-20T06:11:57;13.97;;;5.77;;
82125;SDS011;71668;51.400;6.758;2023-12-20T06:14:24;18.70;;;5.90;;
82125;SDS011;71668;51.400;6.758;2023-12-20T06:16:51;14.40;;;5.40;;
82125;SDS011;71668;51.400;6.758;2023-12-20T06:19:18;14.50;;;5.73;;
82125;SDS011;71668;51.400;6.758;2023-12-20T06:21:45;13.67;;;5.63;;
82125;SDS011;71668;51.400;6.758;2023-12-20T06:24:12;17.30;;;5.50;;
82125;SDS011;71668;51.400;6.758;2023-12-20T06:26:38;17.13;;;5.70;;
82125;SDS011;71668;51.400;6.758;2023-12-20T06:29:05;11.13;;;5.10;;
82125;SDS011;71668;51.400;6.758;2023-12-20T06:31:32;11.07;;;5.50;;
82125;SDS011;71668;51.400;6.758;2023-12-20T06:34:00;12.77;;;4.80;;
82125;SDS011;71668;51.400;6.758;2023-12-20T06:36:27;14.20;;;5.47;;
82125;SDS011;71668;51.400;6.758;2023-12-20T06:38:54;17.50;;;5.93;;
82125;SDS011;71668;51.400;6.758;2023-12-20T06:41:21;19.47;;;5.40;;
82125;SDS011;71668;51.400;6.758;2023-12-20T06:43:48;13.90;;;5.33;;
82125;SDS011;71668;51.400;6.758;2023-12-20T06:46:16;17.43;;;5.53;;
82125;SDS011;71668;51.400;6.758;2023-12-20T06:48:44;17.17;;;4.83;;
82125;SDS011;71668;51.400;6.758;2023-12-20T06:51:15;12.80;;;5.20;;
82125;SDS011;71668;51.400;6.758;2023-12-20T06:53:43;16.90;;;5.13;;
82125;SDS011;71668;51.400;6.758;2023-12-20T06:56:10;14.53;;;5.13;;
82125;SDS011;71668;51.400;6.758;2023-12-20T06:58:43;11.03;;;5.00;;
82125;SDS011;71668;51.400;6.758;2023-12-20T07:01:13;18.13;;;5.03;;
82125;SDS011;71668;51.400;6.758;2023-12-20T07:03:41;14.07;;;5.27;;
82125;SDS011;71668;51.400;6.758;2023-12-20T07:06:08;19.87;;;5.67;;
82125;SDS011;71668;51.400;6.758;2023-12-20T07:08:35;19.50;;;5.23;;
82125;SDS011;71668;51.400;6.758;2023-12-20T07:11:02;14.97;;;5.23;;
82125;SDS011;71668;51.400;6.758;2023-12-20T07:13:29;11.90;;;4.70;;
82125;SDS011;71668;51.400;6.758;2023-12-20T07:15:57;17.73;;;5.60;;
82125;SDS011;71668;51.400;6.758;2023-12-20T07:18:24;18.53;;;5.70;;
82125;SDS011;71668;51.400;6.758;2023-12-20T07:20:51;16.00;;;5.07;;
82125;SDS011;71668;51.400;6.758;2023-12-20T07:23:18;14.17;;;5.43;;
82125;SDS011;71668;51.400;6.758;2023-12-20T07:25:46;16.67;;;5.57;;
82125;SDS011;71668;51.400;6.758;2023-12-20T07:28:13;17.30;;;5.30;;
82125;SDS011;71668;51.400;6.758;2023-12-20T07:30:40;13.50;;;4.77;;
82125;SDS011;71668;51.400;6.758;2023-12-20T07:33:07;17.23;;;5.37;;
82125;SDS011;71668;51.400;6.758;2023-12-20T07:35:35;13.07;;;4.60;;
82125;SDS011;71668;51.400;6.758;2023-12-20T07:38:03;14.63;;;5.00;;
82125;SDS011;71668;51.400;6.758;2023-12-20T07:40:30;15.60;;;6.10;;
82125;SDS011;71668;51.400;6.758;2023-12-20T07:42:57;14.73;;;4.70;;
82125;SDS011;71668;51.400;6.758;2023-12-20T07:45:24;14.73;;;5.17;;
82125;SDS011;71668;51.400;6.758;2023-12-20T07:47:52;11.30;;;4.90;;
82125;SDS011;71668;51.400;6.758;2023-12-20T07:50:19;15.07;;;4.80;;
82125;SDS011;71668;51.400;6.758;2023-12-20T07:52:46;16.97;;;5.30;;
82125;SDS011;71668;51.400;6.758;2023-12-20T07:55:13;15.97;;;5.03;;
82125;SDS011;71668;51.400;6.758;2023-12-20T07:57:40;16.00;;;5.70;;
82125;SDS011;71668;51.400;6.758;2023-12-20T08:00:07;15.90;;;4.83;;
82125;SDS011;71668;51.400;6.758;2023-12-20T08:02:35;13.47;;;5.50;;
82125;SDS011;71668;51.400;6.758;2023-12-20T08:05:02;15.53;;;5.17;;
82125;SDS011;71668;51.400;6.758;2023-12-20T08:07:29;17.47;;;5.50;;
82125;SDS011;71668;51.400;6.758;2023-12-20T08:09:56;16.87;;;5.50;;
82125;SDS011;71668;51.400;6.758;2023-12-20T08:12:23;13.77;;;5.47;;
82125;SDS011;71668;51.400;6.758;2023-12-20T08:14:52;14.93;;;6.17;;
82125;SDS011;71668;51.400;6.758;2023-12-20T08:17:19;18.40;;;6.23;;
82125;SDS011;71668;51.400;6.758;2023-12-20T08:19:46;17.73;;;5.60;;
82125;SDS011;71668;51.400;6.758;2023-12-20T08:22:13;14.43;;;5.20;;
82125;SDS011;71668;51.400;6.758;2023-12-20T08:24:40;15.10;;;5.20;;
82125;SDS011;71668;51.400;6.758;2023-12-20T08:27:08;16.03;;;6.03;;
82125;SDS011;71668;51.400;6.758;2023-12-20T08:29:39;13.77;;;5.40;;
82125;SDS011;71668;51.400;6.758;2023-12-20T08:32:06;18.87;;;5.77;;
82125;SDS011;71668;51.400;6.758;2023-12-20T08:34:33;18.00;;;5.30;;
82125;SDS011;71668;51.400;6.758;2023-12-20T08:37:01;15.67;;;5.40;;
82125;SDS011;71668;51.400;6.758;2023-12-20T08:39:29;15.77;;;5.27;;
82125;SDS011;71668;51.400;6.758;2023-12-20T08:42:05;15.43;;;5.43;;
82125;SDS011;71668;51.400;6.758;2023-12-20T08:44:32;19.10;;;5.23;;
82125;SDS011;71668;51.400;6.758;2023-12-20T08:46:59;13.03;;;4.67;;
82125;SDS011;71668;51.400;6.758;2023-12-20T08:49:26;13.40;;;4.67;;
82125;SDS011;71668;51.400;6.758;2023-12-20T08:51:57;15.50;;;5.37;;
82125;SDS011;71668;51.400;6.758;2023-12-20T08:54:27;11.30;;;4.20;;
82125;SDS011;71668;51.400;6.758;2023-12-20T08:56:53;14.83;;;4.30;;
82125;SDS011;71668;51.400;6.758;2023-12-20T08:59:21;14.80;;;4.43;;
82125;SDS011;71668;51.400;6.758;2023-12-20T09:01:48;13.17;;;4.17;;
82125;SDS011;71668;51.400;6.758;2023-12-20T09:04:20;15.07;;;4.37;;
82125;SDS011;71668;51.400;6.758;2023-12-20T09:06:48;13.73;;;4.23;;
82125;SDS011;71668;51.400;6.758;2023-12-20T09:09:15;16.23;;;4.63;;
82125;SDS011;71668;51.400;6.758;2023-12-20T09:11:42;11.90;;;4.30;;
82125;SDS011;71668;51.400;6.758;2023-12-20T09:14:18;18.73;;;4.70;;
82125;SDS011;71668;51.400;6.758;2023-12-20T09:16:45;15.80;;;5.43;;
82125;SDS011;71668;51.400;6.758;2023-12-20T09:19:12;16.47;;;4.50;;
82125;SDS011;71668;51.400;6.758;2023-12-20T09:21:39;12.07;;;4.37;;
82125;SDS011;71668;51.400;6.758;2023-12-20T09:24:07;14.20;;;4.87;;
82125;SDS011;71668;51.400;6.758;2023-12-20T09:26:35;10.57;;;4.57;;
82125;SDS011;71668;51.400;6.758;2023-12-20T09:29:02;15.23;;;4.60;;
82125;SDS011;71668;51.400;6.758;2023-12-20T09:31:29;14.30;;;4.73;;
82125;SDS011;71668;51.400;6.758;2023-12-20T09:33:56;16.80;;;5.40;;
82125;SDS011;71668;51.400;6.758;2023-12-20T09:36:23;12.63;;;4.30;;
82125;SDS011;71668;51.400;6.758;2023-12-20T09:38:50;14.67;;;5.07;;
82125;SDS011;71668;51.400;6.758;2023-12-20T09:41:18;12.80;;;4.30;;
82125;SDS011;71668;51.400;6.758;2023-12-20T09:43:45;13.20;;;4.87;;
82125;SDS011;71668;51.400;6.758;2023-12-20T09:46:13;12.50;;;4.70;;
82125;SDS011;71668;51.400;6.758;2023-12-20T09:48:45;14.33;;;4.70;;
82125;SDS011;71668;51.400;6.758;2023-12-20T09:51:12;11.73;;;4.13;;
82125;SDS011;71668;51.400;6.758;2023-12-20T09:53:39;16.77;;;5.07;;
82125;SDS011;71668;51.400;6.758;2023-12-20T09:56:07;12.57;;;4.33;;
82125;SDS011;71668;51.400;6.758;2023-12-20T09:58:36;13.60;;;4.70;;
82125;SDS011;71668;51.400;6.758;2023-12-20T10:01:05;13.57;;;4.27;;
82125;SDS011;71668;51.400;6.758;2023-12-20T10:03:33;13.63;;;4.50;;
82125;SDS011;71668;51.400;6.758;2023-12-20T10:06:01;14.17;;;4.50;;
82125;SDS011;71668;51.400;6.758;2023-12-20T10:08:28;14.67;;;4.30;;
82125;SDS011;71668;51.400;6.758;2023-12-20T10:10:56;15.77;;;4.57;;
82125;SDS011;71668;51.400;6.758;2023-12-20T10:13:28;12.77;;;5.23;;
82125;SDS011;71668;51.400;6.758;2023-12-20T10:15:55;18.63;;;4.70;;
82125;SDS011;71668;51.400;6.758;2023-12-20T10:18:23;15.57;;;4.93;;
82125;SDS011;71668;51.400;6.758;2023-12-20T10:21:02;16.00;;;4.63;;
82125;SDS011;71668;51.400;6.758;2023-12-20T10:23:30;12.03;;;4.17;;
82125;SDS011;71668;51.400;6.758;2023-12-20T10:25:57;15.77;;;4.63;;
82125;SDS011;71668;51.400;6.758;2023-12-20T10:28:25;11.93;;;4.50;;
82125;SDS011;71668;51.400;6.758;2023-12-20T10:30:55;16.03;;;4.53;;
82125;SDS011;71668;51.400;6.758;2023-12-20T10:33:25;11.80;;;4.20;;
82125;SDS011;71668;51.400;6.758;2023-12-20T10:35:54;14.93;;;4.53;;
82125;SDS011;71668;51.400;6.758;2023-12-20T10:38:21;16.33;;;4.20;;
82125;SDS011;71668;51.400;6.758;2023-12-20T10:40:50;12.13;;;4.10;;
82125;SDS011;71668;51.400;6.758;2023-12-20T10:43:24;11.63;;;4.03;;
82125;SDS011;71668;51.400;6.758;2023-12-20T10:45:53;12.00;;;4.00;;
82125;SDS011;71668;51.400;6.758;2023-12-20T10:48:20;13.37;;;4.60;;
82125;SDS011;71668;51.400;6.758;2023-12-20T10:50:49;13.10;;;4.30;;
82125;SDS011;71668;51.400;6.758;2023-12-20T10:53:16;16.43;;;4.70;;
82125;SDS011;71668;51.400;6.758;2023-12-20T10:55:45;16.17;;;4.60;;
82125;SDS011;71668;51.400;6.758;2023-12-20T10:58:14;14.33;;;4.43;;
82125;SDS011;71668;51.400;6.758;2023-12-20T11:00:42;9.27;;;4.40;;
82125;SDS011;71668;51.400;6.758;2023-12-20T11:03:12;15.50;;;4.47;;
82125;SDS011;71668;51.400;6.758;2023-12-20T11:08:09;15.70;;;3.90;;
82125;SDS011;71668;51.400;6.758;2023-12-20T11:10:44;11.13;;;4.10;;
82125;SDS011;71668;51.400;6.758;2023-12-20T11:13:28;16.67;;;4.40;;
82125;SDS011;71668;51.400;6.758;2023-12-20T11:16:04;14.40;;;4.07;;
82125;SDS011;71668;51.400;6.758;2023-12-20T11:18:31;15.13;;;3.90;;
82125;SDS011;71668;51.400;6.758;2023-12-20T11:21:04;12.93;;;4.20;;
82125;SDS011;71668;51.400;6.758;2023-12-20T11:23:32;13.57;;;4.37;;
82125;SDS011;71668;51.400;6.758;2023-12-20T11:26:02;14.43;;;4.33;;
82125;SDS011;71668;51.400;6.758;2023-12-20T11:28:29;12.90;;;3.90;;
82125;SDS011;71668;51.400;6.758;2023-12-20T11:30:58;12.77;;;4.17;;
82125;SDS011;71668;51.400;6.758;2023-12-20T11:33:30;10.77;;;4.20;;
82125;SDS011;71668;51.400;6.758;2023-12-20T11:36:02;12.10;;;4.77;;
82125;SDS011;71668;51.400;6.758;2023-12-20T11:38:36;11.10;;;3.90;;
82125;SDS011;71668;51.400;6.758;2023-12-20T11:41:07;12.73;;;4.73;;
82125;SDS011;71668;51.400;6.758;2023-12-20T11:43:37;16.67;;;4.43;;
82125;SDS011;71668;51.400;6.758;2023-12-20T11:46:05;15.30;;;3.93;;
82125;SDS011;71668;51.400;6.758;2023-12-20T11:48:36;12.90;;;4.53;;
82125;SDS011;71668;51.400;6.758;2023-12-20T11:51:12;13.67;;;4.53;;
82125;SDS011;71668;51.400;6.758;2023-12-20T11:53:40;11.70;;;4.20;;
82125;SDS011;71668;51.400;6.758;2023-12-20T11:56:08;16.47;;;5.10;;
82125;SDS011;71668;51.400;6.758;2023-12-20T11:58:36;12.87;;;4.40;;
82125;SDS011;71668;51.400;6.758;2023-12-20T12:01:04;11.27;;;4.27;;
82125;SDS011;71668;51.400;6.758;2023-12-20T12:03:34;18.93;;;4.60;;
82125;SDS011;71668;51.400;6.758;2023-12-20T12:06:01;13.13;;;4.20;;
82125;SDS011;71668;51.400;6.758;2023-12-20T12:08:31;10.37;;;4.60;;
82125;SDS011;71668;51.400;6.758;2023-12-20T12:10:59;9.70;;;4.47;;
82125;SDS011;71668;51.400;6.758;2023-12-20T12:13:26;15.57;;;4.43;;
82125;SDS011;71668;51.400;6.758;2023-12-20T12:15:54;18.40;;;4.13;;
82125;SDS011;71668;51.400;6.758;2023-12-20T12:18:21;13.70;;;4.00;;
82125;SDS011;71668;51.400;6.758;2023-12-20T12:20:48;14.53;;;4.07;;
82125;SDS011;71668;51.400;6.758;2023-12-20T12:23:22;10.57;;;3.83;;
82125;SDS011;71668;51.400;6.758;2023-12-20T12:25:50;13.53;;;3.90;;
82125;SDS011;71668;51.400;6.758;2023-12-20T12:28:17;9.43;;;3.70;;
82125;SDS011;71668;51.400;6.758;2023-12-20T12:30:57;11.00;;;3.83;;
82125;SDS011;71668;51.400;6.758;2023-12-20T12:33:25;16.00;;;4.83;;
82125;SDS011;71668;51.400;6.758;2023-12-20T12:35:53;12.70;;;3.87;;
82125;SDS011;71668;51.400;6.758;2023-12-20T12:38:20;14.10;;;4.07;;
82125;SDS011;71668;51.400;6.758;2023-12-20T12:40:48;13.97;;;4.47;;
82125;SDS011;71668;51.400;6.758;2023-12-20T12:43:16;9.10;;;3.50;;
82125;SDS011;71668;51.400;6.758;2023-12-20T12:45:46;13.43;;;4.37;;
82125;SDS011;71668;51.400;6.758;2023-12-20T12:48:14;11.60;;;4.20;;
82125;SDS011;71668;51.400;6.758;2023-12-20T12:50:45;11.87;;;4.17;;
82125;SDS011;71668;51.400;6.758;2023-12-20T12:53:12;10.40;;;3.93;;
82125;SDS011;71668;51.400;6.758;2023-12-20T12:55:40;17.00;;;4.73;;
82125;SDS011;71668;51.400;6.758;2023-12-20T12:58:06;13.37;;;4.47;;
82125;SDS011;71668;51.400;6.758;2023-12-20T13:00:33;14.47;;;4.53;;
82125;SDS011;71668;51.400;6.758;2023-12-20T13:03:01;10.53;;;3.47;;
82125;SDS011;71668;51.400;6.758;2023-12-20T13:05:27;9.63;;;3.73;;
82125;SDS011;71668;51.400;6.758;2023-12-20T13:07:56;9.07;;;3.53;;
82125;SDS011;71668;51.400;6.758;2023-12-20T13:10:23;10.10;;;4.23;;
82125;SDS011;71668;51.400;6.758;2023-12-20T13:12:50;10.65;;;4.05;;
82125;SDS011;71668;51.400;6.758;2023-12-20T13:15:21;13.90;;;5.37;;
82125;SDS011;71668;51.400;6.758;2023-12-20T13:17:47;12.20;;;4.00;;
82125;SDS011;71668;51.400;6.758;2023-12-20T13:20:15;11.03;;;4.17;;
82125;SDS011;71668;51.400;6.758;2023-12-20T13:22:42;10.73;;;4.30;;
82125;SDS011;71668;51.400;6.758;2023-12-20T13:25:09;11.20;;;3.90;;
82125;SDS011;71668;51.400;6.758;2023-12-20T13:27:36;11.97;;;4.27;;
82125;SDS011;71668;51.400;6.758;2023-12-20T13:30:04;13.70;;;4.47;;
82125;SDS011;71668;51.400;6.758;2023-12-20T13:32:32;7.80;;;3.53;;
82125;SDS011;71668;51.400;6.758;2023-12-20T13:34:59;9.03;;;4.53;;
82125;SDS011;71668;51.400;6.758;2023-12-20T13:37:26;13.17;;;4.50;;
82125;SDS011;71668;51.400;6.758;2023-12-20T13:39:53;11.83;;;4.33;;
82125;SDS011;71668;51.400;6.758;2023-12-20T13:42:20;11.93;;;4.40;;
82125;SDS011;71668;51.400;6.758;2023-12-20T13:44:47;11.97;;;4.40;;
82125;SDS011;71668;51.400;6.758;2023-12-20T13:47:14;13.50;;;4.70;;
82125;SDS011;71668;51.400;6.758;2023-12-20T13:49:41;13.20;;;4.90;;
82125;SDS011;71668;51.400;6.758;2023-12-20T13:52:08;15.73;;;5.10;;
82125;SDS011;71668;51.400;6.758;2023-12-20T13:54:35;10.30;;;4.97;;
82125;SDS011;71668;51.400;6.758;2023-12-20T13:57:02;13.30;;;5.17;;
82125;SDS011;71668;51.400;6.758;2023-12-20T13:59:42;15.07;;;4.83;;
82125;SDS011;71668;51.400;6.758;2023-12-20T14:02:09;12.10;;;5.00;;
82125;SDS011;71668;51.400;6.758;2023-12-20T14:04:36;15.17;;;4.97;;
82125;SDS011;71668;51.400;6.758;2023-12-20T14:07:10;11.07;;;5.10;;
82125;SDS011;71668;51.400;6.758;2023-12-20T14:09:40;12.07;;;5.07;;
82125;SDS011;71668;51.400;6.758;2023-12-20T14:12:13;15.60;;;5.90;;
82125;SDS011;71668;51.400;6.758;2023-12-20T14:14:40;13.00;;;5.40;;
82125;SDS011;71668;51.400;6.758;2023-12-20T14:17:07;14.57;;;5.50;;
82125;SDS011;71668;51.400;6.758;2023-12-20T14:19:34;15.73;;;5.27;;
82125;SDS011;71668;51.400;6.758;2023-12-20T14:22:01;12.97;;;5.10;;
82125;SDS011;71668;51.400;6.758;2023-12-20T14:24:30;11.07;;;4.97;;
82125;SDS011;71668;51.400;6.758;2023-12-20T14:26:56;13.30;;;5.03;;
82125;SDS011;71668;51.400;6.758;2023-12-20T14:29:24;13.30;;;4.63;;
82125;SDS011;71668;51.400;6.758;2023-12-20T14:31:52;15.10;;;4.97;;
82125;SDS011;71668;51.400;6.758;2023-12-20T14:34:19;11.03;;;4.50;;
82125;SDS011;71668;51.400;6.758;2023-12-20T14:36:46;10.50;;;4.50;;
82125;SDS011;71668;51.400;6.758;2023-12-20T14:39:13;11.83;;;4.47;;
82125;SDS011;71668;51.400;6.758;2023-12-20T14:41:41;14.13;;;5.30;;